Cherokee — 9HBC7 — position and weather

sailwx.info

Track history (hours):
 
Tides and Currents Weather Stations Pressure Air Temp Water Temp Dewpoint Dewpoint Depression Visibility Wind Speed Wind Dir Waves Ship Positions

Cherokee

Last reported at 2014-Oct-19 02:23 UTC. Time now 2014-Oct-20 08:11 UTC.
Position N 37°28' E 026°07'.

Length 139 m; draft 2.9 m.

Type: Cargo ship. MMSI: 215059000.

Date/timePositionNaut miles runAvg speedWind from/ knotsBaromVisibWave heightAir tempDewpointWater temp
2014-Oct-19 02:23N 37°28' E 026°07'6 6.8
2014-Oct-19 01:32N 37°28' E 026°00'  
2014-Oct-10 14:27N 44°12' E 033°59'7 8.0
2014-Oct-10 13:33N 44°18' E 034°05'9 9.1
2014-Oct-10 12:34N 44°22' E 034°16'10 9.8
2014-Oct-10 11:34N 44°27' E 034°28'9 9.5
2014-Oct-10 10:34N 44°32' E 034°39'9 9.2
2014-Oct-10 09:34N 44°37' E 034°50'9 8.6
2014-Oct-10 08:34N 44°41' E 035°01'8 8.3
2014-Oct-10 07:32N 44°45' E 035°11'8 8.2
2014-Oct-10 06:34N 44°49' E 035°21'  
Track history (hours):
 
Tides and Currents Weather Stations Pressure Air Temp Water Temp Dewpoint Dewpoint Depression Visibility Wind Speed Wind Dir Waves Ship Positions

Cherokee

Last reported at 2014-Oct-19 02:23 UTC. Time now 2014-Oct-20 08:11 UTC.
Position N 37°28' E 026°07'.

Length 139 m; draft 2.9 m.

Type: Cargo ship. MMSI: 215059000.

Date/timePositionNaut miles runAvg speedWind from/ knotsBaromVisibWave heightAir tempDewpointWater temp
2014-Oct-19 02:23N 37°28' E 026°07'6 6.8
2014-Oct-19 01:32N 37°28' E 026°00'  
2014-Oct-10 14:27N 44°12' E 033°59'7 8.0
2014-Oct-10 13:33N 44°18' E 034°05'9 9.1
2014-Oct-10 12:34N 44°22' E 034°16'10 9.8
2014-Oct-10 11:34N 44°27' E 034°28'9 9.5
2014-Oct-10 10:34N 44°32' E 034°39'9 9.2
2014-Oct-10 09:34N 44°37' E 034°50'9 8.6
2014-Oct-10 08:34N 44°41' E 035°01'8 8.3
2014-Oct-10 07:32N 44°45' E 035°11'8 8.2
2014-Oct-10 06:34N 44°49' E 035°21'  

Dump ship's entire track history